sensor_id;sensor_type;location;lat;lon;timestamp;temperature;humidity
7970;DHT22;4030;52.362;9.206;2023-08-12T00:01:42;23.00;83.30
7970;DHT22;4030;52.362;9.206;2023-08-12T00:04:07;23.10;83.50
7970;DHT22;4030;52.362;9.206;2023-08-12T00:06:33;23.10;83.60
7970;DHT22;4030;52.362;9.206;2023-08-12T00:08:59;23.10;83.70
7970;DHT22;4030;52.362;9.206;2023-08-12T00:11:24;23.00;83.90
7970;DHT22;4030;52.362;9.206;2023-08-12T00:13:50;23.00;84.10
7970;DHT22;4030;52.362;9.206;2023-08-12T00:16:16;23.10;84.30
7970;DHT22;4030;52.362;9.206;2023-08-12T00:18:42;23.00;84.30
7970;DHT22;4030;52.362;9.206;2023-08-12T00:21:08;23.00;84.50
7970;DHT22;4030;52.362;9.206;2023-08-12T00:23:39;23.00;84.60
7970;DHT22;4030;52.362;9.206;2023-08-12T00:26:07;23.00;84.60
7970;DHT22;4030;52.362;9.206;2023-08-12T00:28:33;22.90;84.60
7970;DHT22;4030;52.362;9.206;2023-08-12T00:30:59;23.00;84.80
7970;DHT22;4030;52.362;9.206;2023-08-12T00:33:25;22.90;85.00
7970;DHT22;4030;52.362;9.206;2023-08-12T00:35:50;22.90;85.10
7970;DHT22;4030;52.362;9.206;2023-08-12T00:38:16;22.90;85.10
7970;DHT22;4030;52.362;9.206;2023-08-12T00:40:42;22.90;85.30
7970;DHT22;4030;52.362;9.206;2023-08-12T00:43:09;22.90;85.30
7970;DHT22;4030;52.362;9.206;2023-08-12T00:45:35;22.90;85.40
7970;DHT22;4030;52.362;9.206;2023-08-12T00:48:02;22.90;85.60
7970;DHT22;4030;52.362;9.206;2023-08-12T00:50:29;22.90;85.80
7970;DHT22;4030;52.362;9.206;2023-08-12T00:52:55;22.90;85.90
7970;DHT22;4030;52.362;9.206;2023-08-12T00:55:21;22.80;85.90
7970;DHT22;4030;52.362;9.206;2023-08-12T00:57:47;22.80;86.00
7970;DHT22;4030;52.362;9.206;2023-08-12T01:00:14;22.80;86.20
7970;DHT22;4030;52.362;9.206;2023-08-12T01:02:42;22.80;86.20
7970;DHT22;4030;52.362;9.206;2023-08-12T01:05:13;22.80;86.30
7970;DHT22;4030;52.362;9.206;2023-08-12T01:07:40;22.80;86.30
7970;DHT22;4030;52.362;9.206;2023-08-12T01:10:06;22.80;87.20
7970;DHT22;4030;52.362;9.206;2023-08-12T01:12:37;22.80;86.50
7970;DHT22;4030;52.362;9.206;2023-08-12T01:15:23;22.80;86.50
7970;DHT22;4030;52.362;9.206;2023-08-12T01:17:53;22.80;86.60
7970;DHT22;4030;52.362;9.206;2023-08-12T01:20:23;22.80;86.90
7970;DHT22;4030;52.362;9.206;2023-08-12T01:23:13;22.70;86.80
7970;DHT22;4030;52.362;9.206;2023-08-12T01:25:40;22.80;87.10
7970;DHT22;4030;52.362;9.206;2023-08-12T01:28:07;22.80;87.20
7970;DHT22;4030;52.362;9.206;2023-08-12T01:30:38;22.70;87.40
7970;DHT22;4030;52.362;9.206;2023-08-12T01:33:24;22.70;87.60
7970;DHT22;4030;52.362;9.206;2023-08-12T01:35:55;22.70;87.70
7970;DHT22;4030;52.362;9.206;2023-08-12T01:38:26;22.70;87.50
7970;DHT22;4030;52.362;9.206;2023-08-12T01:40:53;22.70;87.40
7970;DHT22;4030;52.362;9.206;2023-08-12T01:43:19;22.70;87.40
7970;DHT22;4030;52.362;9.206;2023-08-12T01:45:45;22.70;87.30
7970;DHT22;4030;52.362;9.206;2023-08-12T01:48:11;22.70;87.10
7970;DHT22;4030;52.362;9.206;2023-08-12T01:50:37;22.70;87.20
7970;DHT22;4030;52.362;9.206;2023-08-12T01:53:02;22.70;87.30
7970;DHT22;4030;52.362;9.206;2023-08-12T01:56:02;22.60;87.10
7970;DHT22;4030;52.362;9.206;2023-08-12T01:58:28;22.60;87.00
7970;DHT22;4030;52.362;9.206;2023-08-12T02:00:54;22.60;87.10
7970;DHT22;4030;52.362;9.206;2023-08-12T02:03:20;22.60;87.00
7970;DHT22;4030;52.362;9.206;2023-08-12T02:05:45;22.60;87.10
7970;DHT22;4030;52.362;9.206;2023-08-12T02:08:11;22.60;87.10
7970;DHT22;4030;52.362;9.206;2023-08-12T02:10:38;22.60;87.10
7970;DHT22;4030;52.362;9.206;2023-08-12T02:13:04;22.60;87.30
7970;DHT22;4030;52.362;9.206;2023-08-12T02:15:30;22.60;88.10
7970;DHT22;4030;52.362;9.206;2023-08-12T02:17:56;22.60;87.40
7970;DHT22;4030;52.362;9.206;2023-08-12T02:20:21;22.70;87.50
7970;DHT22;4030;52.362;9.206;2023-08-12T02:22:47;22.60;87.30
7970;DHT22;4030;52.362;9.206;2023-08-12T02:25:13;22.10;86.60
7970;DHT22;4030;52.362;9.206;2023-08-12T02:27:38;22.60;87.20
7970;DHT22;4030;52.362;9.206;2023-08-12T02:30:05;22.60;87.20
7970;DHT22;4030;52.362;9.206;2023-08-12T02:32:31;22.60;87.20
7970;DHT22;4030;52.362;9.206;2023-08-12T02:34:56;22.60;87.20
7970;DHT22;4030;52.362;9.206;2023-08-12T02:37:22;22.60;87.20
7970;DHT22;4030;52.362;9.206;2023-08-12T02:39:48;22.60;87.30
7970;DHT22;4030;52.362;9.206;2023-08-12T02:42:13;22.60;87.40
7970;DHT22;4030;52.362;9.206;2023-08-12T02:44:39;22.60;87.50
7970;DHT22;4030;52.362;9.206;2023-08-12T02:47:05;22.50;87.60
7970;DHT22;4030;52.362;9.206;2023-08-12T02:49:31;22.60;87.80
7970;DHT22;4030;52.362;9.206;2023-08-12T02:51:56;22.60;87.80
7970;DHT22;4030;52.362;9.206;2023-08-12T02:54:22;22.60;88.00
7970;DHT22;4030;52.362;9.206;2023-08-12T02:56:49;22.60;88.30
7970;DHT22;4030;52.362;9.206;2023-08-12T02:59:15;22.50;88.20
7970;DHT22;4030;52.362;9.206;2023-08-12T03:01:42;22.50;88.40
7970;DHT22;4030;52.362;9.206;2023-08-12T03:04:08;22.60;88.90
7970;DHT22;4030;52.362;9.206;2023-08-12T03:06:33;22.50;88.90
7970;DHT22;4030;52.362;9.206;2023-08-12T03:08:59;22.50;89.00
7970;DHT22;4030;52.362;9.206;2023-08-12T03:11:25;22.50;89.20
7970;DHT22;4030;52.362;9.206;2023-08-12T03:13:50;22.50;89.50
7970;DHT22;4030;52.362;9.206;2023-08-12T03:16:16;22.40;89.60
7970;DHT22;4030;52.362;9.206;2023-08-12T03:18:42;22.50;89.70
7970;DHT22;4030;52.362;9.206;2023-08-12T03:21:08;22.40;89.90
7970;DHT22;4030;52.362;9.206;2023-08-12T03:23:35;22.40;90.00
7970;DHT22;4030;52.362;9.206;2023-08-12T03:26:02;22.40;90.10
7970;DHT22;4030;52.362;9.206;2023-08-12T03:28:28;22.40;90.20
7970;DHT22;4030;52.362;9.206;2023-08-12T03:30:53;22.40;90.20
7970;DHT22;4030;52.362;9.206;2023-08-12T03:33:19;22.30;90.20
7970;DHT22;4030;52.362;9.206;2023-08-12T03:35:48;22.40;90.40
7970;DHT22;4030;52.362;9.206;2023-08-12T03:38:15;22.40;90.70
7970;DHT22;4030;52.362;9.206;2023-08-12T03:40:41;22.40;90.80
7970;DHT22;4030;52.362;9.206;2023-08-12T03:43:07;22.30;90.90
7970;DHT22;4030;52.362;9.206;2023-08-12T03:45:39;22.30;91.00
7970;DHT22;4030;52.362;9.206;2023-08-12T03:48:06;22.30;91.00
7970;DHT22;4030;52.362;9.206;2023-08-12T03:50:36;22.30;91.10
7970;DHT22;4030;52.362;9.206;2023-08-12T03:53:03;22.30;91.20
7970;DHT22;4030;52.362;9.206;2023-08-12T03:55:33;22.30;91.30
7970;DHT22;4030;52.362;9.206;2023-08-12T03:57:59;22.30;91.50
7970;DHT22;4030;52.362;9.206;2023-08-12T04:00:25;22.20;91.60
7970;DHT22;4030;52.362;9.206;2023-08-12T04:02:51;22.20;91.60
7970;DHT22;4030;52.362;9.206;2023-08-12T04:05:17;22.20;91.70
7970;DHT22;4030;52.362;9.206;2023-08-12T04:07:43;22.20;91.90
7970;DHT22;4030;52.362;9.206;2023-08-12T04:10:09;22.20;92.00
7970;DHT22;4030;52.362;9.206;2023-08-12T04:12:35;22.20;92.00
7970;DHT22;4030;52.362;9.206;2023-08-12T04:15:01;22.20;92.00
7970;DHT22;4030;52.362;9.206;2023-08-12T04:17:30;22.20;92.10
7970;DHT22;4030;52.362;9.206;2023-08-12T04:19:55;22.20;92.20
7970;DHT22;4030;52.362;9.206;2023-08-12T04:22:21;22.20;92.30
7970;DHT22;4030;52.362;9.206;2023-08-12T04:24:47;22.10;92.30
7970;DHT22;4030;52.362;9.206;2023-08-12T04:27:12;22.20;92.40
7970;DHT22;4030;52.362;9.206;2023-08-12T04:29:38;22.10;92.40
7970;DHT22;4030;52.362;9.206;2023-08-12T04:32:04;22.20;92.70
7970;DHT22;4030;52.362;9.206;2023-08-12T04:34:30;22.10;92.60
7970;DHT22;4030;52.362;9.206;2023-08-12T04:36:55;22.10;92.60
7970;DHT22;4030;52.362;9.206;2023-08-12T04:39:21;22.10;92.70
7970;DHT22;4030;52.362;9.206;2023-08-12T04:41:47;22.10;92.80
7970;DHT22;4030;52.362;9.206;2023-08-12T04:44:13;22.10;92.90
7970;DHT22;4030;52.362;9.206;2023-08-12T04:46:39;22.10;92.90
7970;DHT22;4030;52.362;9.206;2023-08-12T04:49:05;22.10;92.90
7970;DHT22;4030;52.362;9.206;2023-08-12T04:51:31;22.10;93.10
7970;DHT22;4030;52.362;9.206;2023-08-12T04:53:56;22.10;93.10
7970;DHT22;4030;52.362;9.206;2023-08-12T04:56:23;22.10;93.20
7970;DHT22;4030;52.362;9.206;2023-08-12T04:58:49;22.10;93.70
7970;DHT22;4030;52.362;9.206;2023-08-12T05:01:15;22.10;93.40
7970;DHT22;4030;52.362;9.206;2023-08-12T05:03:41;22.10;93.50
7970;DHT22;4030;52.362;9.206;2023-08-12T05:06:06;22.10;93.60
7970;DHT22;4030;52.362;9.206;2023-08-12T05:08:32;22.10;93.70
7970;DHT22;4030;52.362;9.206;2023-08-12T05:10:58;22.10;93.70
7970;DHT22;4030;52.362;9.206;2023-08-12T05:13:23;22.10;93.70
7970;DHT22;4030;52.362;9.206;2023-08-12T05:15:49;22.10;93.80
7970;DHT22;4030;52.362;9.206;2023-08-12T05:18:15;22.10;93.80
7970;DHT22;4030;52.362;9.206;2023-08-12T05:20:41;22.10;93.80
7970;DHT22;4030;52.362;9.206;2023-08-12T05:23:08;22.10;94.00
7970;DHT22;4030;52.362;9.206;2023-08-12T05:25:34;22.10;94.00
7970;DHT22;4030;52.362;9.206;2023-08-12T05:28:00;22.10;94.10
7970;DHT22;4030;52.362;9.206;2023-08-12T05:30:25;22.10;94.10
7970;DHT22;4030;52.362;9.206;2023-08-12T05:32:51;22.10;94.20
7970;DHT22;4030;52.362;9.206;2023-08-12T05:35:17;22.10;94.30
7970;DHT22;4030;52.362;9.206;2023-08-12T05:37:42;22.10;94.40
7970;DHT22;4030;52.362;9.206;2023-08-12T05:40:09;22.10;94.50
7970;DHT22;4030;52.362;9.206;2023-08-12T05:42:35;22.10;94.50
7970;DHT22;4030;52.362;9.206;2023-08-12T05:45:01;22.10;94.50
7970;DHT22;4030;52.362;9.206;2023-08-12T05:47:28;22.10;94.60
7970;DHT22;4030;52.362;9.206;2023-08-12T05:49:54;22.10;94.70
7970;DHT22;4030;52.362;9.206;2023-08-12T05:52:19;22.10;94.70
7970;DHT22;4030;52.362;9.206;2023-08-12T05:54:45;22.10;94.80
7970;DHT22;4030;52.362;9.206;2023-08-12T05:57:11;22.20;95.00
7970;DHT22;4030;52.362;9.206;2023-08-12T05:59:36;22.20;94.90
7970;DHT22;4030;52.362;9.206;2023-08-12T06:02:02;22.10;94.90
7970;DHT22;4030;52.362;9.206;2023-08-12T06:04:29;22.10;95.00
7970;DHT22;4030;52.362;9.206;2023-08-12T06:06:54;22.20;95.20
7970;DHT22;4030;52.362;9.206;2023-08-12T06:09:21;22.20;95.30
7970;DHT22;4030;52.362;9.206;2023-08-12T06:11:47;22.20;95.30
7970;DHT22;4030;52.362;9.206;2023-08-12T06:14:13;22.20;95.40
7970;DHT22;4030;52.362;9.206;2023-08-12T06:16:38;22.30;95.50
7970;DHT22;4030;52.362;9.206;2023-08-12T06:19:04;22.20;95.50
7970;DHT22;4030;52.362;9.206;2023-08-12T06:21:30;22.20;95.50
7970;DHT22;4030;52.362;9.206;2023-08-12T06:23:56;22.30;95.60
7970;DHT22;4030;52.362;9.206;2023-08-12T06:26:21;22.20;95.60
7970;DHT22;4030;52.362;9.206;2023-08-12T06:28:47;22.30;95.60
7970;DHT22;4030;52.362;9.206;2023-08-12T06:31:13;22.30;95.70
7970;DHT22;4030;52.362;9.206;2023-08-12T06:33:38;22.30;95.70
7970;DHT22;4030;52.362;9.206;2023-08-12T06:36:04;22.30;95.70
7970;DHT22;4030;52.362;9.206;2023-08-12T06:38:31;22.40;95.70
7970;DHT22;4030;52.362;9.206;2023-08-12T06:40:56;22.40;95.70
7970;DHT22;4030;52.362;9.206;2023-08-12T06:43:22;22.40;95.80
7970;DHT22;4030;52.362;9.206;2023-08-12T06:45:47;22.50;95.90
7970;DHT22;4030;52.362;9.206;2023-08-12T06:48:13;22.50;95.90
7970;DHT22;4030;52.362;9.206;2023-08-12T06:50:39;22.50;96.00
7970;DHT22;4030;52.362;9.206;2023-08-12T06:53:04;22.60;96.10
7970;DHT22;4030;52.362;9.206;2023-08-12T06:55:30;22.60;96.10
7970;DHT22;4030;52.362;9.206;2023-08-12T06:57:56;22.60;96.10
7970;DHT22;4030;52.362;9.206;2023-08-12T07:00:22;22.60;96.20
7970;DHT22;4030;52.362;9.206;2023-08-12T07:02:47;22.60;96.10
7970;DHT22;4030;52.362;9.206;2023-08-12T07:05:13;22.70;96.20
7970;DHT22;4030;52.362;9.206;2023-08-12T07:07:39;22.70;96.20
7970;DHT22;4030;52.362;9.206;2023-08-12T07:10:05;22.80;96.30
7970;DHT22;4030;52.362;9.206;2023-08-12T07:12:31;22.90;96.30
7970;DHT22;4030;52.362;9.206;2023-08-12T07:14:58;23.00;96.30
7970;DHT22;4030;52.362;9.206;2023-08-12T07:17:24;23.00;96.20
7970;DHT22;4030;52.362;9.206;2023-08-12T07:19:49;23.00;96.30
7970;DHT22;4030;52.362;9.206;2023-08-12T07:22:15;23.10;96.30
7970;DHT22;4030;52.362;9.206;2023-08-12T07:24:44;23.10;96.40
7970;DHT22;4030;52.362;9.206;2023-08-12T07:27:10;23.10;96.50
7970;DHT22;4030;52.362;9.206;2023-08-12T07:29:36;23.20;96.30
7970;DHT22;4030;52.362;9.206;2023-08-12T07:32:02;23.30;96.50
7970;DHT22;4030;52.362;9.206;2023-08-12T07:34:28;23.30;96.40
7970;DHT22;4030;52.362;9.206;2023-08-12T07:36:53;23.30;96.30
7970;DHT22;4030;52.362;9.206;2023-08-12T07:39:19;23.30;96.30
7970;DHT22;4030;52.362;9.206;2023-08-12T07:41:45;23.40;96.40
7970;DHT22;4030;52.362;9.206;2023-08-12T07:44:10;23.30;96.40
7970;DHT22;4030;52.362;9.206;2023-08-12T07:46:36;23.30;96.40
7970;DHT22;4030;52.362;9.206;2023-08-12T07:49:02;23.30;96.40
7970;DHT22;4030;52.362;9.206;2023-08-12T07:51:27;23.30;96.40
7970;DHT22;4030;52.362;9.206;2023-08-12T07:53:53;23.30;96.40
7970;DHT22;4030;52.362;9.206;2023-08-12T07:56:19;23.30;96.40
7970;DHT22;4030;52.362;9.206;2023-08-12T07:58:44;23.20;96.40
7970;DHT22;4030;52.362;9.206;2023-08-12T08:01:11;23.20;96.40
7970;DHT22;4030;52.362;9.206;2023-08-12T08:03:37;23.30;96.40
7970;DHT22;4030;52.362;9.206;2023-08-12T08:06:02;23.20;96.30
7970;DHT22;4030;52.362;9.206;2023-08-12T08:08:28;23.30;96.30
7970;DHT22;4030;52.362;9.206;2023-08-12T08:10:54;23.30;96.20
7970;DHT22;4030;52.362;9.206;2023-08-12T08:13:19;23.40;96.20
7970;DHT22;4030;52.362;9.206;2023-08-12T08:15:45;23.40;96.10
7970;DHT22;4030;52.362;9.206;2023-08-12T08:18:11;23.40;96.10
7970;DHT22;4030;52.362;9.206;2023-08-12T08:20:37;23.50;96.20
7970;DHT22;4030;52.362;9.206;2023-08-12T08:23:02;23.40;96.20
7970;DHT22;4030;52.362;9.206;2023-08-12T08:25:28;23.40;96.20
7970;DHT22;4030;52.362;9.206;2023-08-12T08:27:54;23.40;96.50
7970;DHT22;4030;52.362;9.206;2023-08-12T08:30:20;23.40;96.70
7970;DHT22;4030;52.362;9.206;2023-08-12T08:32:45;23.40;96.60
7970;DHT22;4030;52.362;9.206;2023-08-12T08:35:12;23.40;96.80
7970;DHT22;4030;52.362;9.206;2023-08-12T08:37:37;23.40;96.80
7970;DHT22;4030;52.362;9.206;2023-08-12T08:40:04;23.30;96.80
7970;DHT22;4030;52.362;9.206;2023-08-12T08:42:31;23.30;96.80
7970;DHT22;4030;52.362;9.206;2023-08-12T08:44:59;23.30;96.90
7970;DHT22;4030;52.362;9.206;2023-08-12T08:47:27;23.30;96.80
7970;DHT22;4030;52.362;9.206;2023-08-12T08:49:56;23.30;96.80
7970;DHT22;4030;52.362;9.206;2023-08-12T08:52:26;23.30;96.80
7970;DHT22;4030;52.362;9.206;2023-08-12T08:54:52;23.20;96.80
7970;DHT22;4030;52.362;9.206;2023-08-12T08:57:18;23.20;97.10
7970;DHT22;4030;52.362;9.206;2023-08-12T08:59:45;23.20;97.00
7970;DHT22;4030;52.362;9.206;2023-08-12T09:02:15;23.20;96.90
7970;DHT22;4030;52.362;9.206;2023-08-12T09:04:44;23.20;96.90
7970;DHT22;4030;52.362;9.206;2023-08-12T09:07:11;23.20;96.80
7970;DHT22;4030;52.362;9.206;2023-08-12T09:09:39;23.30;96.90
7970;DHT22;4030;52.362;9.206;2023-08-12T09:12:06;23.20;96.70
7970;DHT22;4030;52.362;9.206;2023-08-12T09:14:32;23.30;96.70
7970;DHT22;4030;52.362;9.206;2023-08-12T09:16:58;23.30;96.60
7970;DHT22;4030;52.362;9.206;2023-08-12T09:19:25;23.30;96.50
7970;DHT22;4030;52.362;9.206;2023-08-12T09:21:54;23.40;96.50
7970;DHT22;4030;52.362;9.206;2023-08-12T09:24:26;23.40;96.40
7970;DHT22;4030;52.362;9.206;2023-08-12T09:26:53;23.60;96.40
7970;DHT22;4030;52.362;9.206;2023-08-12T09:29:25;23.60;96.30
7970;DHT22;4030;52.362;9.206;2023-08-12T09:32:04;23.80;96.20
7970;DHT22;4030;52.362;9.206;2023-08-12T09:34:30;23.80;96.00
7970;DHT22;4030;52.362;9.206;2023-08-12T09:36:56;24.00;95.80
7970;DHT22;4030;52.362;9.206;2023-08-12T09:39:22;24.10;95.60
7970;DHT22;4030;52.362;9.206;2023-08-12T09:41:49;24.20;95.50
7970;DHT22;4030;52.362;9.206;2023-08-12T09:44:16;24.20;95.40
7970;DHT22;4030;52.362;9.206;2023-08-12T09:46:42;24.30;95.40
7970;DHT22;4030;52.362;9.206;2023-08-12T09:49:08;24.30;95.50
7970;DHT22;4030;52.362;9.206;2023-08-12T09:51:37;24.40;95.50
7970;DHT22;4030;52.362;9.206;2023-08-12T09:54:05;24.40;95.40
7970;DHT22;4030;52.362;9.206;2023-08-12T09:56:33;24.40;95.40
7970;DHT22;4030;52.362;9.206;2023-08-12T09:59:05;24.40;95.30
7970;DHT22;4030;52.362;9.206;2023-08-12T10:01:32;24.40;95.20
7970;DHT22;4030;52.362;9.206;2023-08-12T10:03:58;24.50;95.20
7970;DHT22;4030;52.362;9.206;2023-08-12T10:06:25;24.50;95.10
7970;DHT22;4030;52.362;9.206;2023-08-12T10:08:51;24.50;95.10
7970;DHT22;4030;52.362;9.206;2023-08-12T10:11:17;24.60;95.00
7970;DHT22;4030;52.362;9.206;2023-08-12T10:13:43;24.60;94.90
7970;DHT22;4030;52.362;9.206;2023-08-12T10:16:10;24.70;94.80
7970;DHT22;4030;52.362;9.206;2023-08-12T10:18:38;24.80;94.70
7970;DHT22;4030;52.362;9.206;2023-08-12T10:21:06;24.90;94.70
7970;DHT22;4030;52.362;9.206;2023-08-12T10:23:34;25.00;94.60
7970;DHT22;4030;52.362;9.206;2023-08-12T10:26:02;25.20;94.40
7970;DHT22;4030;52.362;9.206;2023-08-12T10:28:31;25.30;94.30
7970;DHT22;4030;52.362;9.206;2023-08-12T10:31:03;25.50;94.30
7970;DHT22;4030;52.362;9.206;2023-08-12T10:33:30;25.60;94.30
7970;DHT22;4030;52.362;9.206;2023-08-12T10:36:00;25.90;94.20
7970;DHT22;4030;52.362;9.206;2023-08-12T10:38:26;26.10;94.10
7970;DHT22;4030;52.362;9.206;2023-08-12T10:40:52;26.30;94.00
7970;DHT22;4030;52.362;9.206;2023-08-12T10:43:18;26.50;94.00
7970;DHT22;4030;52.362;9.206;2023-08-12T10:45:47;26.70;93.80
7970;DHT22;4030;52.362;9.206;2023-08-12T10:48:20;27.00;93.50
7970;DHT22;4030;52.362;9.206;2023-08-12T10:50:55;27.20;93.30
7970;DHT22;4030;52.362;9.206;2023-08-12T10:53:32;27.30;93.10
7970;DHT22;4030;52.362;9.206;2023-08-12T10:56:01;27.40;93.00
7970;DHT22;4030;52.362;9.206;2023-08-12T11:01:13;27.70;92.50
7970;DHT22;4030;52.362;9.206;2023-08-12T11:03:48;27.80;92.40
7970;DHT22;4030;52.362;9.206;2023-08-12T11:06:14;28.00;92.30
7970;DHT22;4030;52.362;9.206;2023-08-12T11:08:52;28.00;92.00
7970;DHT22;4030;52.362;9.206;2023-08-12T11:11:23;28.00;91.80
7970;DHT22;4030;52.362;9.206;2023-08-12T11:13:56;28.10;91.50
7970;DHT22;4030;52.362;9.206;2023-08-12T11:16:37;28.20;91.00
7970;DHT22;4030;52.362;9.206;2023-08-12T11:19:04;28.20;91.10
7970;DHT22;4030;52.362;9.206;2023-08-12T11:21:30;28.30;90.60
7970;DHT22;4030;52.362;9.206;2023-08-12T11:23:56;28.40;90.50
7970;DHT22;4030;52.362;9.206;2023-08-12T11:26:24;28.40;90.40
7970;DHT22;4030;52.362;9.206;2023-08-12T11:28:50;28.30;90.40
7970;DHT22;4030;52.362;9.206;2023-08-12T11:31:19;28.20;90.40
7970;DHT22;4030;52.362;9.206;2023-08-12T11:33:45;28.00;90.60
7970;DHT22;4030;52.362;9.206;2023-08-12T11:36:10;27.90;90.70
7970;DHT22;4030;52.362;9.206;2023-08-12T11:38:37;27.70;90.80
7970;DHT22;4030;52.362;9.206;2023-08-12T11:41:03;27.60;90.90
7970;DHT22;4030;52.362;9.206;2023-08-12T11:43:29;27.40;91.00
7970;DHT22;4030;52.362;9.206;2023-08-12T11:45:57;27.30;91.10
7970;DHT22;4030;52.362;9.206;2023-08-12T11:48:22;27.30;91.20
7970;DHT22;4030;52.362;9.206;2023-08-12T11:50:49;27.30;91.20
7970;DHT22;4030;52.362;9.206;2023-08-12T11:53:16;27.30;91.20
7970;DHT22;4030;52.362;9.206;2023-08-12T11:55:42;27.30;91.20
7970;DHT22;4030;52.362;9.206;2023-08-12T11:58:08;27.30;91.20
7970;DHT22;4030;52.362;9.206;2023-08-12T12:00:33;27.40;91.10
7970;DHT22;4030;52.362;9.206;2023-08-12T12:02:59;27.50;91.10
7970;DHT22;4030;52.362;9.206;2023-08-12T12:05:27;27.50;91.00
7970;DHT22;4030;52.362;9.206;2023-08-12T12:07:55;27.60;91.00
7970;DHT22;4030;52.362;9.206;2023-08-12T12:10:26;27.70;90.90
7970;DHT22;4030;52.362;9.206;2023-08-12T12:12:55;27.70;90.90
7970;DHT22;4030;52.362;9.206;2023-08-12T12:15:21;27.80;90.90
7970;DHT22;4030;52.362;9.206;2023-08-12T12:17:50;27.70;90.90
7970;DHT22;4030;52.362;9.206;2023-08-12T12:20:16;27.70;91.00
7970;DHT22;4030;52.362;9.206;2023-08-12T12:22:43;27.60;91.00
7970;DHT22;4030;52.362;9.206;2023-08-12T12:25:12;27.50;91.10
7970;DHT22;4030;52.362;9.206;2023-08-12T12:27:41;27.50;91.10
7970;DHT22;4030;52.362;9.206;2023-08-12T12:30:12;27.50;91.10
7970;DHT22;4030;52.362;9.206;2023-08-12T12:32:38;27.50;91.10
7970;DHT22;4030;52.362;9.206;2023-08-12T12:35:05;27.60;91.00
7970;DHT22;4030;52.362;9.206;2023-08-12T12:37:33;27.60;90.90
7970;DHT22;4030;52.362;9.206;2023-08-12T12:39:58;27.60;90.80
7970;DHT22;4030;52.362;9.206;2023-08-12T12:42:24;27.70;90.70
7970;DHT22;4030;52.362;9.206;2023-08-12T12:44:50;27.80;90.60
7970;DHT22;4030;52.362;9.206;2023-08-12T12:47:16;27.90;90.60
7970;DHT22;4030;52.362;9.206;2023-08-12T12:49:44;27.90;90.50
7970;DHT22;4030;52.362;9.206;2023-08-12T12:52:10;27.90;90.30
7970;DHT22;4030;52.362;9.206;2023-08-12T12:54:36;27.80;90.00
7970;DHT22;4030;52.362;9.206;2023-08-12T12:57:01;27.70;90.00
7970;DHT22;4030;52.362;9.206;2023-08-12T12:59:29;27.60;90.00
7970;DHT22;4030;52.362;9.206;2023-08-12T13:01:55;27.60;90.00
7970;DHT22;4030;52.362;9.206;2023-08-12T13:04:21;27.50;90.00
7970;DHT22;4030;52.362;9.206;2023-08-12T13:06:46;27.50;90.00
7970;DHT22;4030;52.362;9.206;2023-08-12T13:09:12;27.80;90.00
7970;DHT22;4030;52.362;9.206;2023-08-12T13:11:38;28.20;89.40
7970;DHT22;4030;52.362;9.206;2023-08-12T13:14:04;28.50;88.70
7970;DHT22;4030;52.362;9.206;2023-08-12T13:16:30;28.80;87.60
7970;DHT22;4030;52.362;9.206;2023-08-12T13:18:56;29.20;86.70
7970;DHT22;4030;52.362;9.206;2023-08-12T13:21:25;29.40;85.70
7970;DHT22;4030;52.362;9.206;2023-08-12T13:23:51;29.40;84.90
7970;DHT22;4030;52.362;9.206;2023-08-12T13:26:18;29.30;84.40
7970;DHT22;4030;52.362;9.206;2023-08-12T13:28:45;29.20;84.40
7970;DHT22;4030;52.362;9.206;2023-08-12T13:31:11;29.00;84.60
7970;DHT22;4030;52.362;9.206;2023-08-12T13:33:37;28.80;84.90
7970;DHT22;4030;52.362;9.206;2023-08-12T13:36:03;28.60;85.30
7970;DHT22;4030;52.362;9.206;2023-08-12T13:38:29;28.40;85.60
7970;DHT22;4030;52.362;9.206;2023-08-12T13:40:55;28.20;86.00
7970;DHT22;4030;52.362;9.206;2023-08-12T13:43:20;28.00;86.30
7970;DHT22;4030;52.362;9.206;2023-08-12T13:45:46;27.90;86.80
7970;DHT22;4030;52.362;9.206;2023-08-12T13:48:12;27.80;87.20
7970;DHT22;4030;52.362;9.206;2023-08-12T13:50:37;27.70;87.40
7970;DHT22;4030;52.362;9.206;2023-08-12T13:53:03;27.50;87.70
7970;DHT22;4030;52.362;9.206;2023-08-12T13:55:29;27.40;88.00
7970;DHT22;4030;52.362;9.206;2023-08-12T13:57:55;27.30;88.40
7970;DHT22;4030;52.362;9.206;2023-08-12T14:00:20;27.20;88.80
7970;DHT22;4030;52.362;9.206;2023-08-12T14:02:46;27.10;89.00
7970;DHT22;4030;52.362;9.206;2023-08-12T14:05:14;27.10;89.20
7970;DHT22;4030;52.362;9.206;2023-08-12T14:07:40;27.20;89.30
7970;DHT22;4030;52.362;9.206;2023-08-12T14:10:06;27.20;89.50
7970;DHT22;4030;52.362;9.206;2023-08-12T14:12:32;27.10;89.70
7970;DHT22;4030;52.362;9.206;2023-08-12T14:14:58;27.10;89.80
7970;DHT22;4030;52.362;9.206;2023-08-12T14:17:24;27.10;90.00
7970;DHT22;4030;52.362;9.206;2023-08-12T14:19:51;27.00;90.00
7970;DHT22;4030;52.362;9.206;2023-08-12T14:22:19;27.00;90.10
7970;DHT22;4030;52.362;9.206;2023-08-12T14:24:44;27.00;90.10
7970;DHT22;4030;52.362;9.206;2023-08-12T14:27:11;27.00;90.10
7970;DHT22;4030;52.362;9.206;2023-08-12T14:29:37;27.00;90.10
7970;DHT22;4030;52.362;9.206;2023-08-12T14:32:03;27.00;90.10
7970;DHT22;4030;52.362;9.206;2023-08-12T14:34:30;27.10;90.10
7970;DHT22;4030;52.362;9.206;2023-08-12T14:36:55;27.20;90.00
7970;DHT22;4030;52.362;9.206;2023-08-12T14:39:21;27.30;90.00
7970;DHT22;4030;52.362;9.206;2023-08-12T14:41:47;27.60;89.80
7970;DHT22;4030;52.362;9.206;2023-08-12T14:44:14;27.80;89.00
7970;DHT22;4030;52.362;9.206;2023-08-12T14:46:41;27.90;88.70
7970;DHT22;4030;52.362;9.206;2023-08-12T14:49:06;27.90;88.30
7970;DHT22;4030;52.362;9.206;2023-08-12T14:51:32;27.80;88.10
7970;DHT22;4030;52.362;9.206;2023-08-12T14:53:58;27.80;88.00
7970;DHT22;4030;52.362;9.206;2023-08-12T14:56:24;27.80;88.00
7970;DHT22;4030;52.362;9.206;2023-08-12T14:58:49;27.80;87.90
7970;DHT22;4030;52.362;9.206;2023-08-12T15:01:15;27.90;87.60
7970;DHT22;4030;52.362;9.206;2023-08-12T15:03:41;28.10;87.50
7970;DHT22;4030;52.362;9.206;2023-08-12T15:06:07;28.10;86.90
7970;DHT22;4030;52.362;9.206;2023-08-12T15:08:33;28.20;87.10
7970;DHT22;4030;52.362;9.206;2023-08-12T15:10:58;28.20;87.20
7970;DHT22;4030;52.362;9.206;2023-08-12T15:13:25;28.10;87.10
7970;DHT22;4030;52.362;9.206;2023-08-12T15:15:51;28.00;87.20
7970;DHT22;4030;52.362;9.206;2023-08-12T15:18:17;28.00;87.40
7970;DHT22;4030;52.362;9.206;2023-08-12T15:20:43;27.90;87.50
7970;DHT22;4030;52.362;9.206;2023-08-12T15:23:09;27.80;87.60
7970;DHT22;4030;52.362;9.206;2023-08-12T15:25:35;27.70;87.70
7970;DHT22;4030;52.362;9.206;2023-08-12T15:28:01;27.60;87.90
7970;DHT22;4030;52.362;9.206;2023-08-12T15:30:28;27.50;88.00
7970;DHT22;4030;52.362;9.206;2023-08-12T15:32:54;27.40;88.10
7970;DHT22;4030;52.362;9.206;2023-08-12T15:35:20;27.30;88.30
7970;DHT22;4030;52.362;9.206;2023-08-12T15:37:46;27.30;88.50
7970;DHT22;4030;52.362;9.206;2023-08-12T15:40:12;27.30;88.50
7970;DHT22;4030;52.362;9.206;2023-08-12T15:42:39;27.30;88.50
7970;DHT22;4030;52.362;9.206;2023-08-12T15:45:05;27.30;88.60
7970;DHT22;4030;52.362;9.206;2023-08-12T15:47:31;27.30;88.90
7970;DHT22;4030;52.362;9.206;2023-08-12T15:50:00;27.20;89.00
7970;DHT22;4030;52.362;9.206;2023-08-12T15:52:26;27.20;89.30
7970;DHT22;4030;52.362;9.206;2023-08-12T15:54:52;27.10;89.40
7970;DHT22;4030;52.362;9.206;2023-08-12T15:57:18;27.10;89.60
7970;DHT22;4030;52.362;9.206;2023-08-12T15:59:44;27.00;89.70
7970;DHT22;4030;52.362;9.206;2023-08-12T16:02:11;27.00;90.00